sensor_id;sensor_type;location;lat;lon;timestamp;P1;durP1;ratioP1;P2;durP2;ratioP2
63034;SDS011;59750;53.356;-1.458;2023-01-23T00:02:20;37.85;;;20.05;;
63034;SDS011;59750;53.356;-1.458;2023-01-23T00:04:46;31.50;;;18.50;;
63034;SDS011;59750;53.356;-1.458;2023-01-23T00:07:14;39.42;;;20.67;;
63034;SDS011;59750;53.356;-1.458;2023-01-23T00:09:39;40.92;;;21.20;;
63034;SDS011;59750;53.356;-1.458;2023-01-23T00:12:05;38.17;;;19.15;;
63034;SDS011;59750;53.356;-1.458;2023-01-23T00:14:31;38.42;;;21.02;;
63034;SDS011;59750;53.356;-1.458;2023-01-23T00:16:57;39.78;;;21.58;;
63034;SDS011;59750;53.356;-1.458;2023-01-23T00:19:24;35.25;;;19.85;;
63034;SDS011;59750;53.356;-1.458;2023-01-23T00:21:49;34.40;;;18.55;;
63034;SDS011;59750;53.356;-1.458;2023-01-23T00:24:15;38.55;;;21.13;;
63034;SDS011;59750;53.356;-1.458;2023-01-23T00:26:41;36.15;;;19.45;;
63034;SDS011;59750;53.356;-1.458;2023-01-23T00:29:07;35.20;;;18.88;;
63034;SDS011;59750;53.356;-1.458;2023-01-23T00:31:34;40.03;;;21.00;;
63034;SDS011;59750;53.356;-1.458;2023-01-23T00:34:05;35.03;;;19.52;;
63034;SDS011;59750;53.356;-1.458;2023-01-23T00:36:36;35.50;;;20.10;;
63034;SDS011;59750;53.356;-1.458;2023-01-23T00:39:05;33.50;;;17.38;;
63034;SDS011;59750;53.356;-1.458;2023-01-23T00:41:33;32.42;;;18.70;;
63034;SDS011;59750;53.356;-1.458;2023-01-23T00:43:59;30.13;;;16.63;;
63034;SDS011;59750;53.356;-1.458;2023-01-23T00:46:24;37.22;;;19.05;;
63034;SDS011;59750;53.356;-1.458;2023-01-23T00:48:50;34.90;;;18.65;;
63034;SDS011;59750;53.356;-1.458;2023-01-23T00:51:16;30.30;;;16.92;;
63034;SDS011;59750;53.356;-1.458;2023-01-23T00:53:42;29.48;;;17.27;;
63034;SDS011;59750;53.356;-1.458;2023-01-23T00:56:09;31.60;;;16.85;;
63034;SDS011;59750;53.356;-1.458;2023-01-23T00:58:35;34.00;;;18.70;;
63034;SDS011;59750;53.356;-1.458;2023-01-23T01:01:01;32.70;;;17.95;;
63034;SDS011;59750;53.356;-1.458;2023-01-23T01:03:27;31.20;;;19.10;;
63034;SDS011;59750;53.356;-1.458;2023-01-23T01:05:54;34.15;;;17.88;;
63034;SDS011;59750;53.356;-1.458;2023-01-23T01:08:20;33.25;;;18.92;;
63034;SDS011;59750;53.356;-1.458;2023-01-23T01:10:46;33.28;;;18.40;;
63034;SDS011;59750;53.356;-1.458;2023-01-23T01:13:12;34.85;;;19.90;;
63034;SDS011;59750;53.356;-1.458;2023-01-23T01:15:39;28.52;;;17.67;;
63034;SDS011;59750;53.356;-1.458;2023-01-23T01:18:05;29.23;;;17.30;;
63034;SDS011;59750;53.356;-1.458;2023-01-23T01:20:31;33.08;;;18.40;;
63034;SDS011;59750;53.356;-1.458;2023-01-23T01:22:57;38.10;;;19.35;;
63034;SDS011;59750;53.356;-1.458;2023-01-23T01:25:25;33.33;;;19.75;;
63034;SDS011;59750;53.356;-1.458;2023-01-23T01:27:52;34.60;;;18.23;;
63034;SDS011;59750;53.356;-1.458;2023-01-23T01:30:18;37.70;;;19.63;;
63034;SDS011;59750;53.356;-1.458;2023-01-23T01:32:44;37.78;;;20.25;;
63034;SDS011;59750;53.356;-1.458;2023-01-23T01:35:10;41.22;;;19.98;;
63034;SDS011;59750;53.356;-1.458;2023-01-23T01:37:37;37.28;;;19.08;;
63034;SDS011;59750;53.356;-1.458;2023-01-23T01:40:05;39.25;;;21.17;;
63034;SDS011;59750;53.356;-1.458;2023-01-23T01:42:37;30.80;;;18.45;;
63034;SDS011;59750;53.356;-1.458;2023-01-23T01:45:53;35.92;;;19.35;;
63034;SDS011;59750;53.356;-1.458;2023-01-23T01:48:11;35.47;;;19.08;;
63034;SDS011;59750;53.356;-1.458;2023-01-23T01:50:37;29.83;;;17.92;;
63034;SDS011;59750;53.356;-1.458;2023-01-23T01:53:05;34.70;;;18.48;;
63034;SDS011;59750;53.356;-1.458;2023-01-23T01:55:34;32.92;;;19.08;;
63034;SDS011;59750;53.356;-1.458;2023-01-23T01:58:02;34.72;;;18.45;;
63034;SDS011;59750;53.356;-1.458;2023-01-23T02:00:34;32.03;;;18.35;;
63034;SDS011;59750;53.356;-1.458;2023-01-23T02:03:05;30.45;;;18.75;;
63034;SDS011;59750;53.356;-1.458;2023-01-23T02:05:36;36.90;;;19.45;;
63034;SDS011;59750;53.356;-1.458;2023-01-23T02:10:43;36.15;;;18.50;;
63034;SDS011;59750;53.356;-1.458;2023-01-23T02:15:59;32.85;;;17.95;;
63034;SDS011;59750;53.356;-1.458;2023-01-23T02:18:28;35.92;;;19.85;;
63034;SDS011;59750;53.356;-1.458;2023-01-23T02:20:57;34.15;;;19.00;;
63034;SDS011;59750;53.356;-1.458;2023-01-23T02:26:16;32.20;;;20.13;;
63034;SDS011;59750;53.356;-1.458;2023-01-23T02:28:47;34.47;;;19.65;;
63034;SDS011;59750;53.356;-1.458;2023-01-23T02:31:18;36.22;;;19.60;;
63034;SDS011;59750;53.356;-1.458;2023-01-23T02:33:46;34.65;;;20.23;;
63034;SDS011;59750;53.356;-1.458;2023-01-23T02:36:15;38.45;;;21.15;;
63034;SDS011;59750;53.356;-1.458;2023-01-23T02:41:36;32.30;;;19.90;;
63034;SDS011;59750;53.356;-1.458;2023-01-23T02:44:08;38.67;;;19.75;;
63034;SDS011;59750;53.356;-1.458;2023-01-23T02:46:40;36.15;;;20.88;;
63034;SDS011;59750;53.356;-1.458;2023-01-23T02:49:06;36.40;;;19.70;;
63034;SDS011;59750;53.356;-1.458;2023-01-23T02:51:32;36.88;;;18.70;;
63034;SDS011;59750;53.356;-1.458;2023-01-23T02:54:00;36.22;;;20.35;;
63034;SDS011;59750;53.356;-1.458;2023-01-23T02:56:25;35.03;;;20.35;;
63034;SDS011;59750;53.356;-1.458;2023-01-23T02:58:52;40.78;;;20.02;;
63034;SDS011;59750;53.356;-1.458;2023-01-23T03:01:36;37.10;;;21.67;;
63034;SDS011;59750;53.356;-1.458;2023-01-23T03:04:03;37.25;;;20.95;;
63034;SDS011;59750;53.356;-1.458;2023-01-23T03:06:31;40.25;;;21.27;;
63034;SDS011;59750;53.356;-1.458;2023-01-23T03:09:05;33.55;;;19.65;;
63034;SDS011;59750;53.356;-1.458;2023-01-23T03:11:35;33.83;;;19.75;;
63034;SDS011;59750;53.356;-1.458;2023-01-23T03:14:03;31.58;;;18.33;;
63034;SDS011;59750;53.356;-1.458;2023-01-23T03:16:30;30.58;;;18.23;;
63034;SDS011;59750;53.356;-1.458;2023-01-23T03:18:58;29.98;;;18.08;;
63034;SDS011;59750;53.356;-1.458;2023-01-23T03:21:30;29.30;;;17.45;;
63034;SDS011;59750;53.356;-1.458;2023-01-23T03:23:58;32.88;;;19.45;;
63034;SDS011;59750;53.356;-1.458;2023-01-23T03:26:24;31.92;;;19.48;;
63034;SDS011;59750;53.356;-1.458;2023-01-23T03:28:51;38.72;;;21.27;;
63034;SDS011;59750;53.356;-1.458;2023-01-23T03:31:35;33.85;;;19.40;;
63034;SDS011;59750;53.356;-1.458;2023-01-23T03:34:01;29.70;;;18.08;;
63034;SDS011;59750;53.356;-1.458;2023-01-23T03:36:26;36.50;;;18.85;;
63034;SDS011;59750;53.356;-1.458;2023-01-23T03:38:52;32.95;;;19.80;;
63034;SDS011;59750;53.356;-1.458;2023-01-23T03:41:36;31.25;;;17.52;;
63034;SDS011;59750;53.356;-1.458;2023-01-23T03:44:06;31.17;;;18.30;;
63034;SDS011;59750;53.356;-1.458;2023-01-23T03:46:33;31.25;;;17.98;;
63034;SDS011;59750;53.356;-1.458;2023-01-23T03:49:00;31.00;;;18.13;;
63034;SDS011;59750;53.356;-1.458;2023-01-23T03:51:26;26.55;;;16.90;;
63034;SDS011;59750;53.356;-1.458;2023-01-23T03:53:53;30.23;;;19.13;;
63034;SDS011;59750;53.356;-1.458;2023-01-23T03:56:19;31.63;;;16.90;;
63034;SDS011;59750;53.356;-1.458;2023-01-23T03:58:45;32.70;;;18.52;;
63034;SDS011;59750;53.356;-1.458;2023-01-23T04:01:16;34.10;;;18.35;;
63034;SDS011;59750;53.356;-1.458;2023-01-23T04:03:48;30.90;;;16.98;;
63034;SDS011;59750;53.356;-1.458;2023-01-23T04:06:18;32.72;;;19.40;;
63034;SDS011;59750;53.356;-1.458;2023-01-23T04:08:52;33.10;;;19.10;;
63034;SDS011;59750;53.356;-1.458;2023-01-23T04:11:19;35.90;;;19.55;;
63034;SDS011;59750;53.356;-1.458;2023-01-23T04:13:46;44.30;;;20.60;;
63034;SDS011;59750;53.356;-1.458;2023-01-23T04:16:12;29.80;;;18.30;;
63034;SDS011;59750;53.356;-1.458;2023-01-23T04:18:40;30.50;;;18.00;;
63034;SDS011;59750;53.356;-1.458;2023-01-23T04:21:06;33.35;;;19.60;;
63034;SDS011;59750;53.356;-1.458;2023-01-23T04:23:32;29.45;;;18.25;;
63034;SDS011;59750;53.356;-1.458;2023-01-23T04:26:01;31.90;;;17.65;;
63034;SDS011;59750;53.356;-1.458;2023-01-23T04:28:27;33.92;;;18.15;;
63034;SDS011;59750;53.356;-1.458;2023-01-23T04:30:54;31.90;;;17.27;;
63034;SDS011;59750;53.356;-1.458;2023-01-23T04:33:20;29.23;;;18.63;;
63034;SDS011;59750;53.356;-1.458;2023-01-23T04:38:31;37.95;;;18.83;;
63034;SDS011;59750;53.356;-1.458;2023-01-23T04:40:58;35.63;;;20.15;;
63034;SDS011;59750;53.356;-1.458;2023-01-23T04:43:24;33.47;;;19.38;;
63034;SDS011;59750;53.356;-1.458;2023-01-23T04:45:52;31.77;;;19.08;;
63034;SDS011;59750;53.356;-1.458;2023-01-23T04:48:19;36.55;;;19.70;;
63034;SDS011;59750;53.356;-1.458;2023-01-23T04:50:46;37.90;;;21.25;;
63034;SDS011;59750;53.356;-1.458;2023-01-23T04:53:13;34.95;;;20.65;;
63034;SDS011;59750;53.356;-1.458;2023-01-23T04:55:39;42.45;;;22.30;;
63034;SDS011;59750;53.356;-1.458;2023-01-23T04:58:05;34.88;;;20.00;;
63034;SDS011;59750;53.356;-1.458;2023-01-23T05:00:31;33.00;;;18.33;;
63034;SDS011;59750;53.356;-1.458;2023-01-23T05:02:57;40.92;;;20.75;;
63034;SDS011;59750;53.356;-1.458;2023-01-23T05:05:24;38.33;;;19.67;;
63034;SDS011;59750;53.356;-1.458;2023-01-23T05:07:50;46.63;;;23.02;;
63034;SDS011;59750;53.356;-1.458;2023-01-23T05:10:16;38.30;;;20.30;;
63034;SDS011;59750;53.356;-1.458;2023-01-23T05:12:42;32.70;;;18.88;;
63034;SDS011;59750;53.356;-1.458;2023-01-23T05:15:09;40.88;;;21.75;;
63034;SDS011;59750;53.356;-1.458;2023-01-23T05:17:35;37.00;;;18.67;;
63034;SDS011;59750;53.356;-1.458;2023-01-23T05:20:02;37.45;;;21.23;;
63034;SDS011;59750;53.356;-1.458;2023-01-23T05:22:29;42.30;;;20.85;;
63034;SDS011;59750;53.356;-1.458;2023-01-23T05:24:55;40.17;;;20.20;;
63034;SDS011;59750;53.356;-1.458;2023-01-23T05:27:21;41.58;;;22.23;;
63034;SDS011;59750;53.356;-1.458;2023-01-23T05:29:47;37.08;;;20.15;;
63034;SDS011;59750;53.356;-1.458;2023-01-23T05:32:13;36.55;;;19.35;;
63034;SDS011;59750;53.356;-1.458;2023-01-23T05:34:39;39.45;;;20.42;;
63034;SDS011;59750;53.356;-1.458;2023-01-23T05:37:05;55.88;;;22.30;;
63034;SDS011;59750;53.356;-1.458;2023-01-23T05:39:31;38.03;;;21.42;;
63034;SDS011;59750;53.356;-1.458;2023-01-23T05:41:57;38.08;;;20.80;;
63034;SDS011;59750;53.356;-1.458;2023-01-23T05:44:23;38.45;;;22.42;;
63034;SDS011;59750;53.356;-1.458;2023-01-23T05:46:49;40.85;;;21.20;;
63034;SDS011;59750;53.356;-1.458;2023-01-23T05:49:15;38.22;;;21.38;;
63034;SDS011;59750;53.356;-1.458;2023-01-23T05:51:41;45.28;;;22.48;;
63034;SDS011;59750;53.356;-1.458;2023-01-23T05:54:08;43.15;;;24.42;;
63034;SDS011;59750;53.356;-1.458;2023-01-23T05:56:36;47.70;;;24.17;;
63034;SDS011;59750;53.356;-1.458;2023-01-23T05:59:02;50.38;;;24.80;;
63034;SDS011;59750;53.356;-1.458;2023-01-23T06:01:30;46.00;;;24.65;;
63034;SDS011;59750;53.356;-1.458;2023-01-23T06:03:56;41.67;;;22.95;;
63034;SDS011;59750;53.356;-1.458;2023-01-23T06:06:21;50.00;;;26.00;;
63034;SDS011;59750;53.356;-1.458;2023-01-23T06:08:47;46.47;;;25.58;;
63034;SDS011;59750;53.356;-1.458;2023-01-23T06:11:13;47.15;;;24.65;;
63034;SDS011;59750;53.356;-1.458;2023-01-23T06:13:38;40.13;;;22.08;;
63034;SDS011;59750;53.356;-1.458;2023-01-23T06:16:04;40.50;;;22.75;;
63034;SDS011;59750;53.356;-1.458;2023-01-23T06:18:31;39.22;;;22.80;;
63034;SDS011;59750;53.356;-1.458;2023-01-23T06:20:58;42.42;;;24.45;;
63034;SDS011;59750;53.356;-1.458;2023-01-23T06:23:25;37.45;;;21.30;;
63034;SDS011;59750;53.356;-1.458;2023-01-23T06:25:51;41.78;;;22.63;;
63034;SDS011;59750;53.356;-1.458;2023-01-23T06:28:18;36.78;;;21.10;;
63034;SDS011;59750;53.356;-1.458;2023-01-23T06:30:43;38.35;;;21.25;;
63034;SDS011;59750;53.356;-1.458;2023-01-23T06:33:09;39.85;;;21.65;;
63034;SDS011;59750;53.356;-1.458;2023-01-23T06:35:35;34.15;;;20.23;;
63034;SDS011;59750;53.356;-1.458;2023-01-23T06:38:01;38.65;;;21.20;;
63034;SDS011;59750;53.356;-1.458;2023-01-23T06:40:27;40.17;;;21.25;;
63034;SDS011;59750;53.356;-1.458;2023-01-23T06:42:53;41.17;;;21.67;;
63034;SDS011;59750;53.356;-1.458;2023-01-23T06:45:19;43.05;;;23.38;;
63034;SDS011;59750;53.356;-1.458;2023-01-23T06:47:46;42.25;;;22.20;;
63034;SDS011;59750;53.356;-1.458;2023-01-23T06:50:12;40.97;;;24.40;;
63034;SDS011;59750;53.356;-1.458;2023-01-23T06:52:38;44.95;;;23.00;;
63034;SDS011;59750;53.356;-1.458;2023-01-23T06:55:04;39.85;;;22.98;;
63034;SDS011;59750;53.356;-1.458;2023-01-23T06:57:31;43.67;;;23.15;;
63034;SDS011;59750;53.356;-1.458;2023-01-23T06:59:58;40.25;;;23.98;;
63034;SDS011;59750;53.356;-1.458;2023-01-23T07:02:24;42.85;;;24.23;;
63034;SDS011;59750;53.356;-1.458;2023-01-23T07:04:51;38.55;;;22.38;;
63034;SDS011;59750;53.356;-1.458;2023-01-23T07:07:20;39.47;;;21.92;;
63034;SDS011;59750;53.356;-1.458;2023-01-23T07:09:46;42.10;;;23.92;;
63034;SDS011;59750;53.356;-1.458;2023-01-23T07:12:12;43.90;;;23.80;;
63034;SDS011;59750;53.356;-1.458;2023-01-23T07:14:38;38.47;;;21.73;;
63034;SDS011;59750;53.356;-1.458;2023-01-23T07:17:03;38.33;;;22.33;;
63034;SDS011;59750;53.356;-1.458;2023-01-23T07:19:30;42.92;;;21.48;;
63034;SDS011;59750;53.356;-1.458;2023-01-23T07:21:55;39.35;;;20.98;;
63034;SDS011;59750;53.356;-1.458;2023-01-23T07:24:22;45.78;;;23.13;;
63034;SDS011;59750;53.356;-1.458;2023-01-23T07:26:47;41.53;;;22.15;;
63034;SDS011;59750;53.356;-1.458;2023-01-23T07:29:14;36.83;;;21.15;;
63034;SDS011;59750;53.356;-1.458;2023-01-23T07:31:39;39.10;;;21.83;;
63034;SDS011;59750;53.356;-1.458;2023-01-23T07:34:06;34.28;;;20.15;;
63034;SDS011;59750;53.356;-1.458;2023-01-23T07:36:31;34.17;;;21.40;;
63034;SDS011;59750;53.356;-1.458;2023-01-23T07:38:57;35.60;;;19.95;;
63034;SDS011;59750;53.356;-1.458;2023-01-23T07:41:23;33.45;;;20.98;;
63034;SDS011;59750;53.356;-1.458;2023-01-23T07:43:49;36.67;;;20.70;;
63034;SDS011;59750;53.356;-1.458;2023-01-23T07:46:15;34.20;;;20.17;;
63034;SDS011;59750;53.356;-1.458;2023-01-23T07:48:41;41.28;;;22.45;;
63034;SDS011;59750;53.356;-1.458;2023-01-23T07:51:07;33.53;;;20.90;;
63034;SDS011;59750;53.356;-1.458;2023-01-23T07:53:33;36.92;;;20.35;;
63034;SDS011;59750;53.356;-1.458;2023-01-23T07:56:02;35.75;;;21.02;;
63034;SDS011;59750;53.356;-1.458;2023-01-23T07:58:29;32.03;;;19.70;;
63034;SDS011;59750;53.356;-1.458;2023-01-23T08:00:55;34.13;;;19.75;;
63034;SDS011;59750;53.356;-1.458;2023-01-23T08:03:22;31.83;;;18.55;;
63034;SDS011;59750;53.356;-1.458;2023-01-23T08:05:51;38.10;;;21.15;;
63034;SDS011;59750;53.356;-1.458;2023-01-23T08:08:17;36.42;;;21.15;;
63034;SDS011;59750;53.356;-1.458;2023-01-23T08:10:43;36.08;;;20.52;;
63034;SDS011;59750;53.356;-1.458;2023-01-23T08:13:09;40.38;;;21.05;;
63034;SDS011;59750;53.356;-1.458;2023-01-23T08:15:36;44.95;;;23.85;;
63034;SDS011;59750;53.356;-1.458;2023-01-23T08:18:04;37.35;;;22.83;;
63034;SDS011;59750;53.356;-1.458;2023-01-23T08:20:30;38.92;;;22.48;;
63034;SDS011;59750;53.356;-1.458;2023-01-23T08:22:56;40.47;;;21.17;;
63034;SDS011;59750;53.356;-1.458;2023-01-23T08:25:23;39.95;;;21.92;;
63034;SDS011;59750;53.356;-1.458;2023-01-23T08:27:49;35.80;;;19.98;;
63034;SDS011;59750;53.356;-1.458;2023-01-23T08:30:18;32.55;;;19.67;;
63034;SDS011;59750;53.356;-1.458;2023-01-23T08:32:44;41.05;;;20.67;;
63034;SDS011;59750;53.356;-1.458;2023-01-23T08:35:10;35.00;;;20.20;;
63034;SDS011;59750;53.356;-1.458;2023-01-23T08:37:36;34.83;;;21.80;;
63034;SDS011;59750;53.356;-1.458;2023-01-23T08:40:03;38.95;;;21.05;;
63034;SDS011;59750;53.356;-1.458;2023-01-23T08:42:30;40.35;;;23.05;;
63034;SDS011;59750;53.356;-1.458;2023-01-23T08:44:57;40.75;;;22.85;;
63034;SDS011;59750;53.356;-1.458;2023-01-23T08:47:23;37.13;;;21.08;;
63034;SDS011;59750;53.356;-1.458;2023-01-23T08:49:49;35.75;;;19.92;;
63034;SDS011;59750;53.356;-1.458;2023-01-23T08:52:15;38.60;;;20.95;;
63034;SDS011;59750;53.356;-1.458;2023-01-23T08:54:41;41.03;;;21.45;;
63034;SDS011;59750;53.356;-1.458;2023-01-23T08:57:07;34.50;;;20.15;;
63034;SDS011;59750;53.356;-1.458;2023-01-23T08:59:33;47.50;;;23.45;;
63034;SDS011;59750;53.356;-1.458;2023-01-23T09:01:59;35.97;;;21.63;;
63034;SDS011;59750;53.356;-1.458;2023-01-23T09:04:24;41.08;;;23.83;;
63034;SDS011;59750;53.356;-1.458;2023-01-23T09:06:50;40.15;;;21.73;;
63034;SDS011;59750;53.356;-1.458;2023-01-23T09:09:16;41.17;;;23.20;;
63034;SDS011;59750;53.356;-1.458;2023-01-23T09:11:42;38.28;;;20.65;;
63034;SDS011;59750;53.356;-1.458;2023-01-23T09:14:10;41.03;;;21.98;;
63034;SDS011;59750;53.356;-1.458;2023-01-23T09:16:37;34.40;;;20.83;;
63034;SDS011;59750;53.356;-1.458;2023-01-23T09:19:05;36.95;;;20.55;;
63034;SDS011;59750;53.356;-1.458;2023-01-23T09:21:32;36.50;;;22.15;;
63034;SDS011;59750;53.356;-1.458;2023-01-23T09:23:59;38.60;;;20.80;;
63034;SDS011;59750;53.356;-1.458;2023-01-23T09:26:25;31.35;;;19.88;;
63034;SDS011;59750;53.356;-1.458;2023-01-23T09:28:52;29.95;;;18.85;;
63034;SDS011;59750;53.356;-1.458;2023-01-23T09:31:19;25.83;;;17.98;;
63034;SDS011;59750;53.356;-1.458;2023-01-23T09:33:46;29.55;;;17.45;;
63034;SDS011;59750;53.356;-1.458;2023-01-23T09:36:13;26.27;;;17.90;;
63034;SDS011;59750;53.356;-1.458;2023-01-23T09:38:39;28.23;;;17.83;;
63034;SDS011;59750;53.356;-1.458;2023-01-23T09:41:07;26.70;;;15.18;;
63034;SDS011;59750;53.356;-1.458;2023-01-23T09:46:04;23.02;;;15.27;;
63034;SDS011;59750;53.356;-1.458;2023-01-23T09:51:25;26.58;;;16.83;;
63034;SDS011;59750;53.356;-1.458;2023-01-23T09:53:55;26.80;;;17.38;;
63034;SDS011;59750;53.356;-1.458;2023-01-23T10:01:23;29.98;;;19.25;;
63034;SDS011;59750;53.356;-1.458;2023-01-23T10:03:51;32.40;;;19.02;;
63034;SDS011;59750;53.356;-1.458;2023-01-23T10:06:20;30.27;;;18.58;;
63034;SDS011;59750;53.356;-1.458;2023-01-23T10:17:29;29.20;;;17.40;;
63034;SDS011;59750;53.356;-1.458;2023-01-23T10:25:32;24.27;;;16.95;;
63034;SDS011;59750;53.356;-1.458;2023-01-23T10:28:15;26.67;;;17.05;;
63034;SDS011;59750;53.356;-1.458;2023-01-23T10:30:44;28.98;;;17.27;;
63034;SDS011;59750;53.356;-1.458;2023-01-23T10:33:17;24.42;;;16.63;;
63034;SDS011;59750;53.356;-1.458;2023-01-23T10:38:38;25.48;;;17.33;;
63034;SDS011;59750;53.356;-1.458;2023-01-23T10:41:24;23.73;;;16.95;;
63034;SDS011;59750;53.356;-1.458;2023-01-23T10:43:53;26.35;;;17.23;;
63034;SDS011;59750;53.356;-1.458;2023-01-23T10:52:30;27.25;;;19.05;;
63034;SDS011;59750;53.356;-1.458;2023-01-23T10:57:44;30.98;;;19.45;;
63034;SDS011;59750;53.356;-1.458;2023-01-23T11:00:20;26.20;;;16.85;;
63034;SDS011;59750;53.356;-1.458;2023-01-23T11:02:54;26.42;;;18.75;;
63034;SDS011;59750;53.356;-1.458;2023-01-23T11:13:48;32.95;;;20.40;;
63034;SDS011;59750;53.356;-1.458;2023-01-23T11:16:29;30.27;;;18.73;;
63034;SDS011;59750;53.356;-1.458;2023-01-23T11:19:04;26.63;;;18.48;;
63034;SDS011;59750;53.356;-1.458;2023-01-23T11:21:37;24.23;;;16.73;;
63034;SDS011;59750;53.356;-1.458;2023-01-23T11:24:19;29.05;;;18.98;;
63034;SDS011;59750;53.356;-1.458;2023-01-23T11:26:47;29.35;;;19.00;;
63034;SDS011;59750;53.356;-1.458;2023-01-23T11:32:41;26.13;;;16.67;;
63034;SDS011;59750;53.356;-1.458;2023-01-23T11:38:00;24.90;;;16.92;;
63034;SDS011;59750;53.356;-1.458;2023-01-23T11:40:30;26.25;;;17.10;;
63034;SDS011;59750;53.356;-1.458;2023-01-23T11:42:56;21.65;;;15.55;;
63034;SDS011;59750;53.356;-1.458;2023-01-23T11:45:31;25.10;;;16.70;;
63034;SDS011;59750;53.356;-1.458;2023-01-23T11:51:08;25.27;;;17.38;;
63034;SDS011;59750;53.356;-1.458;2023-01-23T11:53:50;22.95;;;16.52;;
63034;SDS011;59750;53.356;-1.458;2023-01-23T12:10:40;21.15;;;15.80;;
63034;SDS011;59750;53.356;-1.458;2023-01-23T12:13:24;20.08;;;15.63;;
63034;SDS011;59750;53.356;-1.458;2023-01-23T12:16:07;19.77;;;14.70;;
63034;SDS011;59750;53.356;-1.458;2023-01-23T12:21:35;22.27;;;15.93;;
63034;SDS011;59750;53.356;-1.458;2023-01-23T12:27:14;21.35;;;16.05;;
63034;SDS011;59750;53.356;-1.458;2023-01-23T12:40:43;22.02;;;15.27;;
63034;SDS011;59750;53.356;-1.458;2023-01-23T12:43:20;22.83;;;15.23;;
63034;SDS011;59750;53.356;-1.458;2023-01-23T12:45:47;26.08;;;16.65;;
63034;SDS011;59750;53.356;-1.458;2023-01-23T12:48:24;29.10;;;16.38;;
63034;SDS011;59750;53.356;-1.458;2023-01-23T12:50:59;23.17;;;16.00;;
63034;SDS011;59750;53.356;-1.458;2023-01-23T12:53:35;27.35;;;17.73;;
63034;SDS011;59750;53.356;-1.458;2023-01-23T12:56:09;26.40;;;16.33;;
63034;SDS011;59750;53.356;-1.458;2023-01-23T12:58:40;23.88;;;14.18;;
63034;SDS011;59750;53.356;-1.458;2023-01-23T13:04:14;23.80;;;15.23;;
63034;SDS011;59750;53.356;-1.458;2023-01-23T13:06:52;21.95;;;14.35;;
63034;SDS011;59750;53.356;-1.458;2023-01-23T13:09:31;21.63;;;14.32;;
63034;SDS011;59750;53.356;-1.458;2023-01-23T13:14:52;23.25;;;13.75;;
63034;SDS011;59750;53.356;-1.458;2023-01-23T13:31:33;18.42;;;11.73;;
63034;SDS011;59750;53.356;-1.458;2023-01-23T13:34:02;16.65;;;10.73;;
63034;SDS011;59750;53.356;-1.458;2023-01-23T13:36:50;18.75;;;12.45;;
63034;SDS011;59750;53.356;-1.458;2023-01-23T13:39:21;20.13;;;11.90;;
63034;SDS011;59750;53.356;-1.458;2023-01-23T13:41:51;18.08;;;11.77;;
63034;SDS011;59750;53.356;-1.458;2023-01-23T13:50:52;16.75;;;10.07;;
63034;SDS011;59750;53.356;-1.458;2023-01-23T13:53:24;15.07;;;10.20;;
63034;SDS011;59750;53.356;-1.458;2023-01-23T14:01:48;16.10;;;9.38;;
63034;SDS011;59750;53.356;-1.458;2023-01-23T14:04:39;16.70;;;10.23;;
63034;SDS011;59750;53.356;-1.458;2023-01-23T14:07:30;13.45;;;10.13;;
63034;SDS011;59750;53.356;-1.458;2023-01-23T14:12:46;16.95;;;11.15;;
63034;SDS011;59750;53.356;-1.458;2023-01-23T14:21:12;15.63;;;10.63;;
63034;SDS011;59750;53.356;-1.458;2023-01-23T14:23:40;15.07;;;10.07;;
63034;SDS011;59750;53.356;-1.458;2023-01-23T14:26:09;17.83;;;11.52;;
63034;SDS011;59750;53.356;-1.458;2023-01-23T14:28:49;15.15;;;10.00;;
63034;SDS011;59750;53.356;-1.458;2023-01-23T14:31:21;15.10;;;10.30;;
63034;SDS011;59750;53.356;-1.458;2023-01-23T14:36:42;16.30;;;10.25;;
63034;SDS011;59750;53.356;-1.458;2023-01-23T14:39:18;16.25;;;9.65;;
63034;SDS011;59750;53.356;-1.458;2023-01-23T14:41:47;17.13;;;10.52;;
63034;SDS011;59750;53.356;-1.458;2023-01-23T14:44:21;14.25;;;9.35;;
63034;SDS011;59750;53.356;-1.458;2023-01-23T14:46:55;15.52;;;9.73;;
63034;SDS011;59750;53.356;-1.458;2023-01-23T14:49:26;17.27;;;10.13;;
63034;SDS011;59750;53.356;-1.458;2023-01-23T14:51:59;17.52;;;10.52;;
63034;SDS011;59750;53.356;-1.458;2023-01-23T14:54:28;21.42;;;11.18;;
63034;SDS011;59750;53.356;-1.458;2023-01-23T14:56:55;17.65;;;10.20;;
63034;SDS011;59750;53.356;-1.458;2023-01-23T14:59:24;16.55;;;11.02;;
63034;SDS011;59750;53.356;-1.458;2023-01-23T15:02:00;15.50;;;11.05;;
63034;SDS011;59750;53.356;-1.458;2023-01-23T15:04:28;17.13;;;11.63;;
63034;SDS011;59750;53.356;-1.458;2023-01-23T15:07:03;16.92;;;11.07;;
63034;SDS011;59750;53.356;-1.458;2023-01-23T15:09:32;18.67;;;11.20;;
63034;SDS011;59750;53.356;-1.458;2023-01-23T15:12:16;17.05;;;10.48;;
63034;SDS011;59750;53.356;-1.458;2023-01-23T15:14:43;19.00;;;10.88;;
63034;SDS011;59750;53.356;-1.458;2023-01-23T15:17:13;16.52;;;10.70;;
63034;SDS011;59750;53.356;-1.458;2023-01-23T15:19:50;14.65;;;10.30;;
63034;SDS011;59750;53.356;-1.458;2023-01-23T15:22:24;17.13;;;11.45;;
63034;SDS011;59750;53.356;-1.458;2023-01-23T15:24:52;19.08;;;11.25;;
63034;SDS011;59750;53.356;-1.458;2023-01-23T15:27:22;15.40;;;9.57;;
63034;SDS011;59750;53.356;-1.458;2023-01-23T15:29:50;13.20;;;9.35;;
63034;SDS011;59750;53.356;-1.458;2023-01-23T15:32:21;15.75;;;9.38;;
63034;SDS011;59750;53.356;-1.458;2023-01-23T15:34:52;16.63;;;8.13;;
63034;SDS011;59750;53.356;-1.458;2023-01-23T15:37:21;11.98;;;8.35;;
63034;SDS011;59750;53.356;-1.458;2023-01-23T15:39:54;11.43;;;7.80;;
63034;SDS011;59750;53.356;-1.458;2023-01-23T15:42:24;14.45;;;7.95;;
63034;SDS011;59750;53.356;-1.458;2023-01-23T15:44:59;14.65;;;10.13;;
63034;SDS011;59750;53.356;-1.458;2023-01-23T15:47:29;19.70;;;12.10;;
63034;SDS011;59750;53.356;-1.458;2023-01-23T15:49:58;18.35;;;12.00;;
63034;SDS011;59750;53.356;-1.458;2023-01-23T15:52:27;23.50;;;14.88;;
63034;SDS011;59750;53.356;-1.458;2023-01-23T15:54:56;27.77;;;14.75;;
63034;SDS011;59750;53.356;-1.458;2023-01-23T15:57:27;21.38;;;14.38;;
63034;SDS011;59750;53.356;-1.458;2023-01-23T15:59:53;27.27;;;15.73;;
63034;SDS011;59750;53.356;-1.458;2023-01-23T16:02:21;22.65;;;14.63;;
63034;SDS011;59750;53.356;-1.458;2023-01-23T16:04:48;26.10;;;16.58;;
63034;SDS011;59750;53.356;-1.458;2023-01-23T16:10:03;24.48;;;16.15;;
63034;SDS011;59750;53.356;-1.458;2023-01-23T16:12:40;30.60;;;17.83;;
63034;SDS011;59750;53.356;-1.458;2023-01-23T16:17:52;29.52;;;17.70;;
63034;SDS011;59750;53.356;-1.458;2023-01-23T16:20:23;27.30;;;17.90;;
63034;SDS011;59750;53.356;-1.458;2023-01-23T16:22:56;26.13;;;16.08;;
63034;SDS011;59750;53.356;-1.458;2023-01-23T16:27:52;25.80;;;16.17;;
63034;SDS011;59750;53.356;-1.458;2023-01-23T16:30:20;28.50;;;17.00;;
63034;SDS011;59750;53.356;-1.458;2023-01-23T16:32:47;28.38;;;17.40;;
63034;SDS011;59750;53.356;-1.458;2023-01-23T16:35:15;29.40;;;17.40;;
63034;SDS011;59750;53.356;-1.458;2023-01-23T16:37:43;28.17;;;17.08;;
63034;SDS011;59750;53.356;-1.458;2023-01-23T16:40:15;26.27;;;15.68;;
63034;SDS011;59750;53.356;-1.458;2023-01-23T16:42:44;24.80;;;16.10;;
63034;SDS011;59750;53.356;-1.458;2023-01-23T16:45:17;27.85;;;17.88;;
63034;SDS011;59750;53.356;-1.458;2023-01-23T16:50:12;26.17;;;16.10;;
63034;SDS011;59750;53.356;-1.458;2023-01-23T16:52:41;28.88;;;16.63;;